Time;durP1;ratioP1;P1;durP2;ratioP2;P2;SDS_P1;SDS_P2;PMS_P1;PMS_P2;Temp;Humidity;BMP_temperature;BMP_pressure;BME280_temperature;BME280_humidity;BME280_pressure;Samples;Min_cycle;Max_cycle;Signal;HPM_P1;HPM_P2
2021/08/28 00:02:55;;;;;;;15.60;8.27;;;;;;;9.10;80.07;98624.28;2138560;83;20983;-82
2021/08/28 00:05:55;;;;;;;10.40;8.27;;;;;;;9.05;79.98;98626.82;2138117;83;21399;-82
2021/08/28 00:08:56;;;;;;;11.17;7.70;;;;;;;9.06;80.27;98625.09;2138539;83;20963;-82
2021/08/28 00:11:56;;;;;;;13.27;8.13;;;;;;;9.04;80.17;98628.10;2138780;83;20928;-81
2021/08/28 00:14:57;;;;;;;11.70;8.47;;;;;;;9.01;80.11;98634.56;2138272;83;21011;-81
2021/08/28 00:17:57;;;;;;;17.90;8.70;;;;;;;8.99;80.23;98634.97;2138206;83;20940;-80
2021/08/28 00:20:58;;;;;;;13.53;8.90;;;;;;;8.93;80.14;98643.14;2139275;83;20936;-81
2021/08/28 00:23:58;;;;;;;17.10;9.07;;;;;;;8.97;80.43;98644.48;2138714;83;20983;-80
2021/08/28 00:26:59;;;;;;;17.03;8.23;;;;;;;8.98;80.39;98642.33;2138367;83;21014;-81
2021/08/28 00:29:59;;;;;;;13.90;8.97;;;;;;;8.98;80.48;98643.20;2138442;83;20999;-80
2021/08/28 00:33:00;;;;;;;12.17;8.13;;;;;;;8.97;80.54;98641.45;2138620;83;20988;-80
2021/08/28 00:36:00;;;;;;;10.13;7.97;;;;;;;8.97;80.66;98653.17;2137982;83;20991;-81
2021/08/28 00:39:01;;;;;;;19.03;8.23;;;;;;;9.01;80.63;98643.67;2138423;83;20948;-80
2021/08/28 00:42:01;;;;;;;12.27;9.30;;;;;;;8.97;80.40;98639.28;2138016;83;20987;-80
2021/08/28 00:45:02;;;;;;;15.33;9.70;;;;;;;8.97;80.57;98646.66;2138254;83;20991;-80
2021/08/28 00:48:02;;;;;;;14.03;8.77;;;;;;;8.98;80.49;98647.54;2138158;83;21015;-79
2021/08/28 00:51:03;;;;;;;17.10;8.97;;;;;;;8.94;80.45;98638.38;2138344;83;20975;-79
2021/08/28 00:54:03;;;;;;;14.00;8.73;;;;;;;8.89;80.34;98636.13;2138102;83;20968;-80
2021/08/28 00:57:04;;;;;;;14.97;9.20;;;;;;;8.89;80.36;98649.16;2138163;83;21295;-79
2021/08/28 01:00:04;;;;;;;13.97;9.57;;;;;;;8.86;80.52;98643.02;2138471;83;21328;-80
2021/08/28 01:03:05;;;;;;;16.77;8.50;;;;;;;8.83;80.55;98645.16;2137836;83;20944;-80
2021/08/28 01:06:06;;;;;;;13.47;8.27;;;;;;;8.80;80.41;98642.92;2138480;83;20964;-80
2021/08/28 01:09:07;;;;;;;12.57;8.23;;;;;;;8.75;80.33;98640.25;2138582;83;20987;-80
2021/08/28 01:12:07;;;;;;;13.57;7.97;;;;;;;8.71;80.25;98643.66;2138508;83;21004;-80
2021/08/28 01:15:08;;;;;;;11.33;7.90;;;;;;;8.71;80.41;98644.95;2138327;83;21015;-80
2021/08/28 01:18:08;;;;;;;9.90;7.47;;;;;;;8.68;80.38;98650.11;2138467;83;20975;-80
2021/08/28 01:21:09;;;;;;;11.00;7.57;;;;;;;8.63;80.24;98648.70;2138394;83;21027;-81
2021/08/28 01:24:09;;;;;;;10.67;6.67;;;;;;;8.60;80.19;98647.78;2138284;83;20971;-80
2021/08/28 01:27:10;;;;;;;17.57;7.83;;;;;;;8.60;80.33;98649.08;2138698;83;21473;-80
2021/08/28 01:30:10;;;;;;;10.47;6.53;;;;;;;8.58;80.31;98655.56;2138438;83;21343;-80
2021/08/28 01:33:11;;;;;;;10.57;6.00;;;;;;;8.55;80.11;98653.33;2138034;83;20948;-81
2021/08/28 01:36:12;;;;;;;13.10;7.07;;;;;;;8.54;80.08;98655.48;2132894;83;21059;-80
2021/08/28 01:39:13;;;;;;;8.97;6.50;;;;;;;8.52;80.30;98655.88;2129142;84;20948;-80
2021/08/28 01:42:13;;;;;;;11.47;6.47;;;;;;;8.49;80.04;98655.41;2129174;84;20932;-80
2021/08/28 01:45:15;;;;;;;14.27;6.13;;;;;;;8.43;79.77;98660.50;2129467;84;21075;-80
2021/08/28 01:48:16;;;;;;;8.13;6.00;;;;;;;8.37;79.69;98660.83;2129200;84;21060;-80
2021/08/28 01:51:16;;;;;;;13.33;6.33;;;;;;;8.34;79.86;98663.38;2129094;84;20996;-80
2021/08/28 01:54:17;;;;;;;7.20;6.50;;;;;;;8.29;79.87;98665.43;2128976;84;21097;-80
2021/08/28 01:57:17;;;;;;;8.57;6.43;;;;;;;8.26;80.09;98667.98;2129053;84;20940;-80
2021/08/28 02:00:18;;;;;;;9.83;6.63;;;;;;;8.28;80.12;98659.78;2129020;84;20972;-80
2021/08/28 02:03:18;;;;;;;14.47;12.40;;;;;;;8.26;80.13;98661.48;2128587;84;20972;-81
2021/08/28 02:06:19;;;;;;;8.27;6.60;;;;;;;9.20;86.61;98663.92;2173162;81;21000;-81
2021/08/28 02:09:20;;;;;;;11.20;6.23;;;;;;;9.02;80.67;98670.16;2173184;82;20940;-81
2021/08/28 02:12:23;;;;;;;11.63;7.47;;;;;;;8.79;79.56;98664.17;2121078;84;20975;-81
2021/08/28 02:15:24;;;;;;;9.80;7.03;;;;;;;8.68;79.58;98668.76;2128973;84;21051;-80
2021/08/28 02:18:24;;;;;;;8.47;7.57;;;;;;;8.60;79.55;98664.27;2128895;84;21351;-81
2021/08/28 02:21:25;;;;;;;19.27;8.50;;;;;;;8.56;79.52;98658.98;2129346;84;21000;-81
2021/08/28 02:24:25;;;;;;;14.23;7.50;;;;;;;8.62;83.11;98660.39;2128950;84;20999;-81
2021/08/28 02:27:25;;;;;;;11.37;7.70;;;;;;;8.84;80.48;98656.44;2128854;84;20988;-82
2021/08/28 02:30:26;;;;;;;13.20;9.17;;;;;;;8.78;80.09;98660.25;2128494;84;21300;-81
2021/08/28 02:33:26;;;;;;;17.10;10.33;;;;;;;8.78;80.53;98658.95;2128290;84;21691;-81
2021/08/28 02:36:27;;;;;;;13.57;9.53;;;;;;;8.82;80.88;98662.92;2181932;81;21007;-81
2021/08/28 02:39:27;;;;;;;17.17;9.60;;;;;;;8.87;81.00;98663.87;2189194;81;20939;-81
2021/08/28 02:42:28;;;;;;;17.10;9.43;;;;;;;8.87;80.44;98665.17;2189797;81;20948;-81
2021/08/28 02:45:28;;;;;;;13.70;10.93;;;;;;;8.87;80.43;98661.69;2189805;81;21031;-80
2021/08/28 02:48:29;;;;;;;13.53;11.30;;;;;;;8.92;81.14;98661.34;2189928;81;21360;-81
2021/08/28 02:51:29;;;;;;;16.73;12.03;;;;;;;8.95;81.17;98657.48;2189991;81;21305;-81
2021/08/28 02:54:30;;;;;;;12.13;10.83;;;;;;;8.98;81.37;98663.16;2190024;81;20944;-82
2021/08/28 02:57:30;;;;;;;14.83;12.40;;;;;;;8.97;80.87;98662.28;2189944;81;20961;-82
2021/08/28 03:00:31;;;;;;;14.67;11.40;;;;;;;8.94;81.12;98655.30;2189982;81;20964;-82
2021/08/28 03:03:31;;;;;;;15.70;13.17;;;;;;;8.98;81.22;98656.22;2190125;81;20956;-82
2021/08/28 03:06:32;;;;;;;15.30;12.93;;;;;;;9.03;81.69;98658.89;2189814;81;21012;-81
2021/08/28 03:09:32;;;;;;;38.50;15.83;;;;;;;9.06;81.84;98659.81;2189756;81;20999;-79
2021/08/28 03:12:33;;;;;;;28.63;15.87;;;;;;;9.24;82.80;98657.48;2189695;81;20956;-80
2021/08/28 03:15:33;;;;;;;24.67;16.90;;;;;;;9.24;82.05;98665.29;2189678;81;21050;-80
2021/08/28 03:18:34;;;;;;;24.57;14.47;;;;;;;9.22;81.82;98668.73;2189484;81;20999;-80
2021/08/28 03:21:34;;;;;;;21.77;13.40;;;;;;;9.17;81.60;98666.05;2189720;81;20971;-80
2021/08/28 03:24:35;;;;;;;18.60;13.90;;;;;;;9.11;81.41;98668.57;2189955;81;20972;-79
2021/08/28 03:27:35;;;;;;;23.67;15.90;;;;;;;9.03;81.30;98671.48;2189340;81;20975;-79
2021/08/28 03:30:36;;;;;;;21.93;12.97;;;;;;;8.97;81.28;98678.33;2189517;81;20959;-80
2021/08/28 03:33:36;;;;;;;30.67;18.20;;;;;;;8.81;80.82;98685.89;2189281;81;20916;-80
2021/08/28 03:36:37;;;;;;;25.43;15.50;;;;;;;8.73;80.91;98684.89;2189571;81;20988;-79
2021/08/28 03:39:37;;;;;;;28.73;18.53;;;;;;;8.65;80.93;98682.98;2189339;81;20932;-79
2021/08/28 03:42:38;;;;;;;30.73;20.30;;;;;;;8.58;80.99;98685.91;2188838;81;20968;-79
2021/08/28 03:45:39;;;;;;;30.47;19.00;;;;;;;8.51;80.77;98682.75;2189602;81;20999;-79
2021/08/28 03:48:39;;;;;;;25.53;17.43;;;;;;;8.45;80.67;98686.55;2189389;81;20975;-80
2021/08/28 03:51:40;;;;;;;22.57;16.93;;;;;;;8.41;80.74;98679.53;2189610;81;20999;-79
2021/08/28 03:54:42;;;;;;;31.83;16.30;;;;;;;8.38;80.62;98680.36;2189804;81;21383;-79
2021/08/28 03:57:43;;;;;;;20.63;13.37;;;;;;;8.32;80.54;98678.91;2189486;81;20956;-79
2021/08/28 04:00:43;;;;;;;15.87;12.40;;;;;;;8.27;80.49;98680.13;2189279;81;20944;-80
2021/08/28 04:03:44;;;;;;;13.77;11.60;;;;;;;8.24;80.27;98682.67;2188609;81;20959;-79
2021/08/28 04:06:44;;;;;;;13.47;10.10;;;;;;;8.16;80.17;98683.37;2189158;81;20940;-79
2021/08/28 04:09:44;;;;;;;10.67;8.60;;;;;;;8.13;80.17;98686.80;2189924;81;20987;-80
2021/08/28 04:12:45;;;;;;;12.07;7.20;;;;;;;8.11;80.33;98688.50;2188840;81;21003;-79
2021/08/28 04:15:45;;;;;;;9.23;6.20;;;;;;;8.12;80.17;98677.67;2188687;81;21016;-79
2021/08/28 04:18:46;;;;;;;11.43;6.27;;;;;;;8.11;79.99;98676.80;2188969;81;20976;-79
2021/08/28 04:21:46;;;;;;;7.27;6.57;;;;;;;8.09;80.01;98681.09;2190740;81;21447;-81
2021/08/28 04:24:50;;;;;;;7.20;5.83;;;;;;;8.11;80.04;98687.62;2189413;81;20991;-80
2021/08/28 04:27:50;;;;;;;9.80;6.40;;;;;;;8.10;79.78;98689.77;2189498;81;21075;-79
2021/08/28 04:30:50;;;;;;;8.23;5.60;;;;;;;8.11;79.79;98692.81;2189420;81;21023;-79
2021/08/28 04:33:51;;;;;;;10.43;5.97;;;;;;;8.10;79.62;98697.14;2189656;81;20948;-80
2021/08/28 04:36:51;;;;;;;9.20;6.93;;;;;;;8.10;79.51;98701.05;2189482;81;21011;-79
2021/08/28 04:39:52;;;;;;;12.47;6.53;;;;;;;8.13;79.74;98700.22;2189684;81;21339;-81
2021/08/28 04:42:52;;;;;;;8.77;6.37;;;;;;;8.19;79.75;98702.52;2189135;81;21022;-79
2021/08/28 04:45:53;;;;;;;10.33;6.10;;;;;;;8.29;79.83;98703.14;2188677;81;20995;-79
2021/08/28 04:48:54;;;;;;;9.13;7.00;;;;;;;8.38;79.64;98704.19;2188576;81;21007;-80
2021/08/28 04:51:54;;;;;;;13.20;8.17;;;;;;;8.52;79.92;98707.91;2189089;81;21035;-80
2021/08/28 04:54:55;;;;;;;12.67;8.10;;;;;;;8.69;79.92;98706.52;2189678;81;20972;-80
2021/08/28 04:57:55;;;;;;;13.67;8.37;;;;;;;8.83;79.69;98707.62;2189791;81;20933;-81
2021/08/28 05:00:56;;;;;;;12.50;7.67;;;;;;;8.97;79.78;98703.06;2189351;81;20929;-79
2021/08/28 05:03:56;;;;;;;11.87;8.63;;;;;;;9.12;79.69;98705.90;2189376;81;20916;-80
2021/08/28 05:06:57;;;;;;;12.70;8.20;;;;;;;9.28;79.60;98703.97;2189385;81;21003;-81
2021/08/28 05:09:57;;;;;;;13.50;7.63;;;;;;;9.44;79.61;98705.95;2188765;81;20964;-81
2021/08/28 05:12:58;;;;;;;27.33;12.70;;;;;;;9.66;79.75;98705.84;2188876;81;20913;-79
2021/08/28 05:15:58;;;;;;;19.27;9.80;;;;;;;9.81;79.51;98710.38;2187993;81;21018;-79
2021/08/28 05:18:59;;;;;;;13.47;8.57;;;;;;;10.01;79.41;98706.28;2187857;81;20991;-80
2021/08/28 05:21:59;;;;;;;13.60;8.17;;;;;;;10.19;79.01;98705.19;2188105;81;21312;-79
2021/08/28 05:25:00;;;;;;;13.73;9.53;;;;;;;10.37;79.04;98708.88;2189250;81;21004;-79
2021/08/28 05:28:00;;;;;;;13.13;8.17;;;;;;;10.54;78.81;98706.05;2189135;81;20976;-80
2021/08/28 05:31:01;;;;;;;9.03;8.07;;;;;;;10.72;78.60;98702.30;2188396;81;20948;-80
2021/08/28 05:34:01;;;;;;;16.70;8.95;;;;;;;10.94;78.70;98703.78;2188575;81;20976;-80
2021/08/28 05:37:02;;;;;;;14.45;10.00;;;;;;;11.16;78.63;98705.27;2188396;81;21327;-80
2021/08/28 05:40:02;;;;;;;12.63;9.08;;;;;;;11.43;78.64;98705.05;2188321;81;20960;-80
2021/08/28 05:43:03;;;;;;;16.85;9.78;;;;;;;11.57;77.76;98704.69;2189101;81;20952;-81
2021/08/28 05:46:05;;;;;;;35.15;18.07;;;;;;;11.76;77.54;98709.58;2189283;81;20936;-80
2021/08/28 05:49:07;;;;;;;25.55;15.85;;;;;;;11.98;77.59;98710.15;2171357;81;21398;-81
2021/08/28 05:52:10;;;;;;;26.57;19.40;;;;;;;12.30;77.42;98714.66;2189160;81;20980;-80
2021/08/28 05:55:12;;;;;;;28.45;18.65;;;;;;;12.53;77.11;98712.96;2189657;81;20979;-80
2021/08/28 05:58:15;;;;;;;32.95;19.27;;;;;;;12.81;76.71;98705.14;2189630;81;21004;-81
2021/08/28 06:01:15;;;;;;;25.72;19.45;;;;;;;13.08;76.28;98705.17;2189642;81;21104;-81
2021/08/28 06:04:16;;;;;;;31.25;21.10;;;;;;;13.35;76.18;98709.11;2188989;81;20975;-80
2021/08/28 06:07:16;;;;;;;31.23;21.23;;;;;;;13.46;75.72;98711.72;2189555;81;21391;-81
2021/08/28 06:10:17;;;;;;;28.57;19.98;;;;;;;13.46;75.61;98711.72;2189804;81;21407;-81
2021/08/28 06:13:17;;;;;;;26.57;18.25;;;;;;;13.63;76.40;98709.06;2189929;81;20995;-81
2021/08/28 06:16:18;;;;;;;22.17;16.90;;;;;;;13.88;75.78;98709.89;2189698;81;21082;-82
2021/08/28 06:19:20;;;;;;;29.67;20.57;;;;;;;14.09;75.49;98708.93;2189639;81;21043;-81
2021/08/28 06:22:21;;;;;;;25.75;18.48;;;;;;;14.33;75.17;98714.06;2189340;81;20988;-80
2021/08/28 06:25:21;;;;;;;22.65;17.48;;;;;;;14.47;73.74;98716.64;2189062;81;20991;-80
2021/08/28 06:28:22;;;;;;;15.78;13.28;;;;;;;14.49;74.13;98705.69;2189248;81;21012;-79
2021/08/28 06:31:22;;;;;;;17.00;12.93;;;;;;;14.70;73.44;98706.86;2189495;81;20945;-80
2021/08/28 06:34:23;;;;;;;14.75;11.57;;;;;;;14.93;72.61;98709.36;2189540;81;20948;-80
2021/08/28 06:37:23;;;;;;;15.50;13.90;;;;;;;14.92;71.62;98706.30;2189089;81;21344;-80
2021/08/28 06:40:24;;;;;;;16.02;12.00;;;;;;;15.05;72.81;98709.25;2189502;81;20964;-79
2021/08/28 06:43:25;;;;;;;14.07;11.25;;;;;;;15.10;71.30;98703.52;2188981;81;20971;-78
2021/08/28 06:46:26;;;;;;;14.45;11.33;;;;;;;15.13;71.53;98707.88;2188718;81;20991;-79
2021/08/28 06:49:27;;;;;;;11.73;10.05;;;;;;;15.18;70.51;98703.01;2188839;81;21411;-80
2021/08/28 06:52:27;;;;;;;13.80;10.15;;;;;;;15.26;70.74;98701.62;2189186;81;20956;-80
2021/08/28 06:55:28;;;;;;;12.18;10.13;;;;;;;15.33;70.60;98707.70;2188913;81;20976;-79
2021/08/28 06:58:28;;;;;;;10.78;9.40;;;;;;;15.44;70.16;98709.78;2189124;81;20968;-80
2021/08/28 07:01:31;;;;;;;9.88;8.88;;;;;;;15.65;70.53;98704.37;2189199;81;20987;-80
2021/08/28 07:04:31;;;;;;;11.40;9.75;;;;;;;15.81;69.89;98703.75;2189178;81;20940;-79
2021/08/28 07:07:32;;;;;;;10.65;8.70;;;;;;;15.87;68.84;98697.10;2189083;81;20994;-79
2021/08/28 07:10:32;;;;;;;10.95;9.80;;;;;;;15.88;69.22;98696.21;2188974;81;20996;-80
2021/08/28 07:13:33;;;;;;;9.08;8.25;;;;;;;15.95;68.80;98698.33;2188469;81;20960;-80
2021/08/28 07:16:33;;;;;;;9.08;7.42;;;;;;;16.09;68.72;98700.34;2188469;81;21011;-80
2021/08/28 07:19:34;;;;;;;9.73;7.00;;;;;;;16.32;67.15;98701.36;2188371;81;21619;-78
2021/08/28 07:22:34;;;;;;;6.90;6.30;;;;;;;16.40;68.02;98703.00;2188252;81;20948;-79
2021/08/28 07:25:37;;;;;;;8.43;6.25;;;;;;;16.60;66.70;98711.97;2188741;81;20939;-79
2021/08/28 07:28:37;;;;;;;6.87;5.97;;;;;;;16.68;66.16;98705.30;2144735;83;21031;-82
2021/08/28 07:31:38;;;;;;;7.25;6.17;;;;;;;16.76;66.63;98706.94;2146364;83;20936;-82
2021/08/28 07:34:39;;;;;;;6.37;5.47;;;;;;;16.95;67.00;98708.84;2145468;83;21019;-81
2021/08/28 07:37:42;;;;;;;8.33;5.47;;;;;;;17.14;65.20;98708.95;2137516;83;21080;-83
2021/08/28 07:40:42;;;;;;;8.05;5.10;;;;;;;17.37;64.70;98698.49;2130203;84;21020;-83
2021/08/28 07:43:43;;;;;;;8.13;4.42;;;;;;;17.47;64.49;98702.25;2129985;84;21011;-83
2021/08/28 07:46:45;;;;;;;5.80;4.75;;;;;;;17.54;64.45;98700.38;2129392;84;21024;-81
2021/08/28 07:49:48;;;;;;;5.08;4.30;;;;;;;17.66;63.15;98707.20;2128984;84;21075;-82
2021/08/28 07:52:48;;;;;;;6.13;4.30;;;;;;;17.70;62.73;98705.83;2128539;84;20976;-82
2021/08/28 07:55:49;;;;;;;4.35;3.92;;;;;;;17.78;63.03;98710.50;2129000;84;21002;-81
2021/08/28 07:58:49;;;;;;;5.33;4.03;;;;;;;17.99;62.56;98706.58;2128127;84;20968;-81
2021/08/28 08:01:52;;;;;;;6.03;3.70;;;;;;;18.19;62.06;98703.52;2127586;84;21019;-80
2021/08/28 08:04:52;;;;;;;5.87;4.15;;;;;;;18.31;61.83;98701.97;2172286;81;20980;-81
2021/08/28 08:07:53;;;;;;;5.85;4.35;;;;;;;18.35;59.66;98699.69;2172832;82;21275;-81
2021/08/28 08:10:53;;;;;;;4.50;4.00;;;;;;;18.37;60.78;98693.91;2173339;81;20984;-81
2021/08/28 08:13:54;;;;;;;6.80;3.83;;;;;;;18.58;60.98;98695.66;2173465;81;20984;-80
2021/08/28 08:16:54;;;;;;;5.03;4.00;;;;;;;18.63;59.84;98692.49;2172989;82;21361;-80
2021/08/28 08:19:55;;;;;;;5.65;3.75;;;;;;;18.77;60.13;98691.27;2172554;81;20988;-82
2021/08/28 08:22:55;;;;;;;3.17;2.98;;;;;;;18.78;58.36;98697.42;2174254;81;20969;-84
2021/08/28 08:25:56;;;;;;;4.80;2.77;;;;;;;18.88;58.94;98694.11;2173019;82;20973;-81
2021/08/28 08:28:58;;;;;;;3.00;2.72;;;;;;;19.11;58.28;98693.13;2173247;81;21032;-82
2021/08/28 08:31:58;;;;;;;2.05;1.95;;;;;;;19.20;57.17;98693.35;2128443;83;20987;-82
2021/08/28 08:34:59;;;;;;;2.35;2.15;;;;;;;19.27;56.85;98692.28;2128785;84;20979;-82
2021/08/28 08:38:00;;;;;;;1.95;1.85;;;;;;;19.36;54.48;98694.24;2128578;82;21388;-82
2021/08/28 08:41:00;;;;;;;2.20;2.00;;;;;;;19.32;54.44;98695.23;2128654;84;20995;-82
2021/08/28 08:44:01;;;;;;;2.60;2.40;;;;;;;19.28;54.91;98693.57;2128504;84;21003;-82
2021/08/28 08:47:01;;;;;;;2.10;1.60;;;;;;;19.43;54.78;98701.56;2128438;84;21011;-84
2021/08/28 08:50:02;;;;;;;2.72;2.02;;;;;;;19.65;53.85;98701.45;2128195;84;21046;-83
2021/08/28 08:53:02;;;;;;;5.92;2.08;;;;;;;19.79;53.19;98698.88;2128449;84;20984;-83
2021/08/28 08:56:05;;;;;;;1.95;1.70;;;;;;;19.87;52.50;98704.83;2128517;84;20971;-83
2021/08/28 08:59:06;;;;;;;4.70;1.95;;;;;;;19.77;52.35;98700.24;2172817;81;21053;-82
2021/08/28 09:02:06;;;;;;;4.00;1.77;;;;;;;19.78;52.83;98707.73;2172969;82;21016;-83
2021/08/28 09:05:07;;;;;;;2.22;1.90;;;;;;;19.91;52.11;98708.67;2172873;81;21024;-84
2021/08/28 09:08:07;;;;;;;2.08;1.98;;;;;;;20.06;51.33;98711.38;2173135;81;20999;-83
2021/08/28 09:11:08;;;;;;;2.25;1.92;;;;;;;19.99;51.37;98715.98;2172983;81;20917;-83
2021/08/28 09:14:08;;;;;;;2.37;2.17;;;;;;;20.15;52.48;98711.12;2173000;81;20976;-83
2021/08/28 09:17:09;;;;;;;3.55;2.02;;;;;;;20.43;51.15;98711.66;2172556;81;21056;-82
2021/08/28 09:20:09;;;;;;;2.22;2.00;;;;;;;20.66;50.89;98706.53;2173146;81;21379;-83
2021/08/28 09:23:10;;;;;;;1.90;1.77;;;;;;;20.87;50.07;98707.67;2172543;81;21004;-84
2021/08/28 09:26:10;;;;;;;2.00;1.87;;;;;;;20.89;47.69;98712.02;2172974;81;20965;-81
2021/08/28 09:29:11;;;;;;;1.82;1.70;;;;;;;20.85;48.15;98706.86;2173289;81;21000;-83
2021/08/28 09:32:11;;;;;;;2.02;1.92;;;;;;;21.00;49.38;98701.05;2173712;81;21004;-83
2021/08/28 09:35:12;;;;;;;2.12;2.00;;;;;;;21.36;50.11;98699.00;2172927;81;21324;-84
2021/08/28 09:38:12;;;;;;;1.98;1.80;;;;;;;21.71;48.95;98702.25;2181937;81;21430;-82
2021/08/28 09:41:13;;;;;;;2.62;2.42;;;;;;;21.65;47.80;98699.78;2188445;81;20952;-82
2021/08/28 09:44:13;;;;;;;2.27;2.05;;;;;;;21.16;49.21;98696.11;2188172;81;21026;-82
2021/08/28 09:47:14;;;;;;;2.30;2.20;;;;;;;20.89;50.39;98701.86;2188088;81;21020;-83
2021/08/28 09:50:14;;;;;;;2.10;1.90;;;;;;;20.70;49.46;98702.00;2188648;81;21426;-81
2021/08/28 09:53:15;;;;;;;2.72;1.80;;;;;;;20.48;50.65;98695.16;2188931;81;21360;-84
2021/08/28 09:56:15;;;;;;;2.00;1.70;;;;;;;20.61;50.34;98690.77;2189687;81;21006;-82
2021/08/28 09:59:16;;;;;;;2.47;1.57;;;;;;;20.56;50.17;98696.66;2189882;81;21011;-82
2021/08/28 10:02:17;;;;;;;1.37;1.10;;;;;;;20.63;51.02;98694.69;2189382;81;20980;-81
2021/08/28 10:05:17;;;;;;;1.02;1.02;;;;;;;20.76;50.22;98699.16;2188268;81;20928;-83
2021/08/28 10:08:18;;;;;;;2.90;1.50;;;;;;;21.06;50.36;98690.70;2189335;81;21043;-82
2021/08/28 10:11:18;;;;;;;1.70;1.27;;;;;;;21.26;46.94;98692.27;2190190;81;20945;-82
2021/08/28 10:14:19;;;;;;;1.40;1.30;;;;;;;21.26;48.68;98686.50;2189882;81;20967;-82
2021/08/28 10:17:19;;;;;;;1.77;1.32;;;;;;;21.59;48.38;98687.12;2189052;81;21391;-84
2021/08/28 10:20:20;;;;;;;1.72;1.57;;;;;;;21.90;48.04;98683.40;2188873;81;20955;-82
2021/08/28 10:23:20;;;;;;;1.50;1.40;;;;;;;21.88;45.65;98686.58;2189312;81;21019;-82
2021/08/28 10:26:21;;;;;;;1.80;1.70;;;;;;;21.74;45.80;98684.88;2188915;81;20979;-83
2021/08/28 10:29:21;;;;;;;1.87;1.70;;;;;;;21.22;47.60;98687.95;2189136;81;21003;-82
2021/08/28 10:32:22;;;;;;;2.17;1.85;;;;;;;21.24;47.79;98686.14;2189236;81;20944;-82
2021/08/28 10:35:22;;;;;;;1.22;1.20;;;;;;;21.36;47.41;98680.41;2188994;81;21344;-82
2021/08/28 10:38:23;;;;;;;1.40;1.30;;;;;;;21.60;46.47;98682.22;2189239;81;21037;-81
2021/08/28 10:41:23;;;;;;;2.40;1.47;;;;;;;21.71;46.03;98688.52;2189525;81;21019;-83
2021/08/28 10:44:24;;;;;;;1.60;1.50;;;;;;;21.51;46.58;98686.52;2189682;81;21003;-81
2021/08/28 10:47:25;;;;;;;1.77;1.67;;;;;;;21.35;46.65;98686.64;2189495;81;20972;-83
2021/08/28 10:50:25;;;;;;;1.60;1.50;;;;;;;21.41;46.94;98686.44;2189415;81;21359;-81
2021/08/28 10:53:25;;;;;;;1.50;1.40;;;;;;;21.48;46.01;98681.31;2189035;81;20932;-82
2021/08/28 10:56:26;;;;;;;1.30;1.20;;;;;;;21.73;47.02;98685.80;2189619;81;21023;-82
2021/08/28 10:59:27;;;;;;;1.60;1.50;;;;;;;22.13;46.34;98682.13;2188737;81;20988;-82
2021/08/28 11:02:27;;;;;;;1.42;1.32;;;;;;;22.44;43.59;98680.95;2187646;81;20984;-83
2021/08/28 11:05:28;;;;;;;1.20;1.10;;;;;;;22.37;44.50;98686.98;2188060;81;20979;-81
2021/08/28 11:08:28;;;;;;;3.40;1.32;;;;;;;22.63;45.12;98675.36;2188523;81;21463;-82
2021/08/28 11:11:36;;;;;;;2.00;1.60;;;;;;;23.11;43.88;98679.19;2188394;81;20948;-81
2021/08/28 11:14:40;;;;;;;2.00;1.12;;;;;;;23.65;43.57;98680.50;2188475;81;20924;-82
2021/08/28 11:17:38;;;;;;;1.47;1.40;;;;;;;23.74;42.34;98682.76;2143968;83;21059;-80
2021/08/28 11:20:39;;;;;;;1.40;1.30;;;;;;;23.66;43.21;98681.36;2144633;83;20912;-81
2021/08/28 11:23:39;;;;;;;1.35;1.25;;;;;;;23.59;43.48;98685.23;2144740;83;21359;-81
2021/08/28 11:26:40;;;;;;;1.67;1.10;;;;;;;23.46;42.50;98686.19;2144242;83;21398;-81
2021/08/28 11:29:41;;;;;;;1.40;1.30;;;;;;;23.41;42.53;98687.72;2144513;83;20984;-82
2021/08/28 11:32:41;;;;;;;1.57;1.27;;;;;;;23.34;43.18;98689.34;2144519;83;21087;-82
2021/08/28 11:35:42;;;;;;;1.60;1.50;;;;;;;23.27;43.93;98687.41;2143989;83;21018;-81
2021/08/28 11:38:42;;;;;;;1.10;1.10;;;;;;;23.30;44.69;98692.60;2134752;83;20995;-81
2021/08/28 11:41:43;;;;;;;2.62;1.50;;;;;;;23.24;42.93;98694.19;2128129;84;21015;-82
2021/08/28 11:44:43;;;;;;;1.45;1.35;;;;;;;22.98;43.45;98696.59;2127955;84;20995;-82
2021/08/28 11:47:44;;;;;;;1.75;1.65;;;;;;;22.77;44.11;98706.73;2127626;84;21023;-82
2021/08/28 11:50:44;;;;;;;1.30;1.20;;;;;;;22.63;43.87;98703.29;2127733;84;21386;-82
2021/08/28 11:53:45;;;;;;;1.72;1.40;;;;;;;22.67;44.11;98704.03;2128521;84;21379;-81
2021/08/28 11:56:45;;;;;;;1.60;1.30;;;;;;;22.66;43.52;98705.83;2128551;84;20936;-84
2021/08/28 11:59:46;;;;;;;2.40;2.08;;;;;;;22.65;43.75;98712.08;2128539;84;20932;-83
2021/08/28 12:02:46;;;;;;;3.08;1.30;;;;;;;22.64;44.69;98707.69;2128424;84;21006;-83
2021/08/28 12:05:47;;;;;;;1.82;1.37;;;;;;;22.48;45.00;98714.48;2128410;84;20952;-82
2021/08/28 12:08:47;;;;;;;1.32;1.22;;;;;;;22.36;45.46;98714.49;2128560;84;21428;-81
2021/08/28 12:11:48;;;;;;;3.35;1.70;;;;;;;22.29;45.96;98714.31;2128579;84;21619;-82
2021/08/28 12:14:48;;;;;;;1.77;1.67;;;;;;;22.27;46.20;98716.63;2128335;84;20948;-82
2021/08/28 12:17:49;;;;;;;1.17;1.10;;;;;;;22.37;46.33;98716.69;2128279;84;21067;-81
2021/08/28 12:20:49;;;;;;;1.62;1.52;;;;;;;22.42;46.33;98716.05;2128499;84;20932;-82
2021/08/28 12:23:49;;;;;;;3.80;1.70;;;;;;;22.56;45.53;98713.77;2128648;84;20994;-84
2021/08/28 12:26:50;;;;;;;2.67;1.50;;;;;;;22.60;45.82;98704.73;2128660;84;20956;-81
2021/08/28 12:29:52;;;;;;;3.42;1.07;;;;;;;22.95;45.06;98702.50;2128515;84;21363;-82
2021/08/28 12:32:52;;;;;;;1.50;1.40;;;;;;;22.91;44.17;98707.55;2128448;84;20952;-82
2021/08/28 12:35:53;;;;;;;1.10;1.10;;;;;;;22.83;43.87;98708.72;2128533;84;21363;-83
2021/08/28 12:38:53;;;;;;;1.30;1.20;;;;;;;22.74;43.37;98707.72;2133367;83;21042;-81
2021/08/28 12:41:54;;;;;;;1.35;1.22;;;;;;;22.62;43.12;98701.55;2137995;83;20998;-83
2021/08/28 12:44:54;;;;;;;1.20;1.17;;;;;;;22.54;43.87;98703.61;2138491;83;20983;-85
2021/08/28 12:47:55;;;;;;;2.15;1.37;;;;;;;22.60;43.70;98702.55;2138820;83;20975;-83
2021/08/28 12:50:55;;;;;;;4.67;1.50;;;;;;;22.61;44.02;98699.82;2138841;83;21351;-82
2021/08/28 12:53:56;;;;;;;3.25;1.50;;;;;;;22.59;44.28;98697.69;2139296;83;20988;-82
2021/08/28 12:56:56;;;;;;;2.25;1.67;;;;;;;22.63;44.20;98703.29;2138912;83;20987;-82
2021/08/28 12:59:57;;;;;;;10.85;9.15;;;;;;;22.65;43.95;98704.56;2138751;83;21335;-82
2021/08/28 13:02:57;;;;;;;4.30;2.98;;;;;;;22.70;44.32;98704.78;2138817;83;20932;-83
2021/08/28 13:05:58;;;;;;;3.00;1.90;;;;;;;22.77;44.03;98704.08;2138070;83;21007;-82
2021/08/28 13:08:58;;;;;;;4.25;1.80;;;;;;;22.82;44.04;98711.45;2138906;83;21003;-83
2021/08/28 13:11:59;;;;;;;1.67;1.57;;;;;;;22.87;43.70;98707.67;2138206;83;20959;-83
2021/08/28 13:14:59;;;;;;;1.72;1.62;;;;;;;23.04;43.45;98709.66;2139091;83;20980;-84
2021/08/28 13:18:00;;;;;;;2.45;1.60;;;;;;;23.05;43.25;98711.85;2138609;83;21023;-83
2021/08/28 13:21:00;;;;;;;1.92;1.50;;;;;;;23.14;43.40;98703.48;2138742;83;20939;-83
2021/08/28 13:24:01;;;;;;;2.12;1.92;;;;;;;23.26;43.22;98712.30;2139084;83;21015;-83
2021/08/28 13:27:01;;;;;;;6.83;2.08;;;;;;;23.38;42.90;98709.59;2139113;83;21386;-84
2021/08/28 13:30:02;;;;;;;3.80;1.57;;;;;;;23.40;42.70;98707.27;2138449;83;20980;-84
2021/08/28 13:33:03;;;;;;;9.63;2.25;;;;;;;23.45;43.11;98709.77;2138719;83;20951;-83
2021/08/28 13:36:05;;;;;;;2.15;1.95;;;;;;;23.53;42.75;98697.45;2138944;83;20972;-83
2021/08/28 13:39:07;;;;;;;2.65;1.52;;;;;;;23.47;42.94;98696.78;2138208;83;21086;-82
2021/08/28 13:42:07;;;;;;;1.95;1.70;;;;;;;23.41;41.86;98700.17;2138701;83;21032;-82
2021/08/28 13:45:08;;;;;;;1.60;1.50;;;;;;;23.14;43.38;98688.38;2138401;83;20947;-82
2021/08/28 13:48:08;;;;;;;1.70;1.60;;;;;;;23.23;42.75;98688.92;2138614;83;20963;-83
2021/08/28 13:51:09;;;;;;;1.77;1.67;;;;;;;23.38;43.15;98684.28;2138686;83;21048;-82
2021/08/28 13:54:10;;;;;;;1.65;1.55;;;;;;;23.46;42.68;98683.06;2138757;83;20943;-84
2021/08/28 13:57:10;;;;;;;3.83;1.87;;;;;;;23.53;42.89;98676.14;2138646;83;20932;-82
2021/08/28 14:00:11;;;;;;;3.45;1.82;;;;;;;23.46;42.41;98674.20;2138569;83;21499;-85
2021/08/28 14:03:11;;;;;;;3.98;1.80;;;;;;;23.39;42.40;98679.36;2138379;83;21414;-83
2021/08/28 14:06:12;;;;;;;1.90;1.70;;;;;;;23.39;42.40;98679.36;2138627;83;21026;-81
2021/08/28 14:09:12;;;;;;;2.10;2.00;;;;;;;23.31;42.48;98666.84;2138865;83;21304;-83